Time;durP1;ratioP1;P1;durP2;ratioP2;P2;SDS_P1;SDS_P2;PMS_P1;PMS_P2;Temp;Humidity;BMP_temperature;BMP_pressure;BME280_temperature;BME280_humidity;BME280_pressure;Samples;Min_cycle;Max_cycle;Signal;HPM_P1;HPM_P2
2021/04/28 00:01:27;;;;;;;1.47;1.20;;;9.10;72.30;;;;;;5037724;28;20561;-82
2021/04/28 00:03:53;;;;;;;1.43;1.20;;;9.20;72.30;;;;;;5049896;28;20841;-80
2021/04/28 00:06:20;;;;;;;1.50;1.20;;;9.30;72.30;;;;;;5029989;28;20466;-81
2021/04/28 00:08:47;;;;;;;1.50;1.20;;;9.40;71.90;;;;;;5042525;28;20462;-81
2021/04/28 00:11:14;;;;;;;1.50;1.20;;;9.40;71.80;;;;;;5032822;28;20510;-81
2021/04/28 00:13:41;;;;;;;1.43;1.10;;;9.50;71.50;;;;;;5051094;28;20840;-81
2021/04/28 00:16:19;;;;;;;1.47;1.10;;;9.50;71.30;;;;;;5028974;28;20665;-82
2021/04/28 00:18:45;;;;;;;1.47;1.20;;;9.60;71.00;;;;;;5043331;28;20490;-82
2021/04/28 00:21:13;;;;;;;1.50;1.20;;;9.60;71.30;;;;;;5027242;28;20494;-82
2021/04/28 00:23:39;;;;;;;1.47;1.10;;;9.60;71.30;;;;;;5047047;28;20520;-82
2021/04/28 00:26:07;;;;;;;1.50;1.17;;;9.50;71.90;;;;;;5024949;28;20491;-83
2021/04/28 00:28:33;;;;;;;1.47;1.10;;;9.50;72.00;;;;;;5047331;28;20459;-82
2021/04/28 00:30:59;;;;;;;1.47;1.10;;;9.50;72.30;;;;;;5023313;28;20498;-82
2021/04/28 00:33:26;;;;;;;1.47;1.10;;;9.40;73.00;;;;;;5044655;28;20734;-83
2021/04/28 00:35:52;;;;;;;1.50;1.20;;;9.40;73.60;;;;;;5025668;28;20558;-82
2021/04/28 00:38:18;;;;;;;1.50;1.10;;;9.30;73.80;;;;;;5050030;28;20500;-82
2021/04/28 00:40:45;;;;;;;1.43;1.10;;;9.20;74.90;;;;;;5037241;28;20522;-80
2021/04/28 00:43:13;;;;;;;1.40;1.10;;;9.20;76.00;;;;;;4997276;28;20511;-83
2021/04/28 00:45:40;;;;;;;1.43;1.17;;;9.10;75.90;;;;;;5009495;28;20461;-83
2021/04/28 00:48:07;;;;;;;1.47;1.10;;;9.10;76.30;;;;;;5040373;28;20683;-81
2021/04/28 00:50:36;;;;;;;1.50;1.10;;;9.00;76.30;;;;;;5030844;28;20484;-82
2021/04/28 00:53:03;;;;;;;1.43;1.10;;;9.00;76.30;;;;;;5033758;28;20927;-80
2021/04/28 00:55:30;;;;;;;1.50;1.30;;;9.00;76.10;;;;;;5030295;28;20476;-81
2021/04/28 00:57:56;;;;;;;1.47;1.20;;;9.00;76.00;;;;;;5033050;28;21002;-83
2021/04/28 01:00:26;;;;;;;1.47;1.10;;;9.00;76.00;;;;;;5030751;28;20898;-81
2021/04/28 01:02:52;;;;;;;1.47;1.20;;;9.00;76.20;;;;;;5036768;28;20491;-81
2021/04/28 01:05:19;;;;;;;1.50;1.20;;;9.00;75.60;;;;;;5038590;28;20482;-83
2021/04/28 01:07:47;;;;;;;1.47;1.10;;;9.00;75.60;;;;;;5041015;28;20470;-82
2021/04/28 01:10:16;;;;;;;1.50;1.10;;;9.00;75.80;;;;;;5034030;28;20971;-81
2021/04/28 01:12:43;;;;;;;1.50;1.10;;;9.00;76.00;;;;;;5033141;28;20489;-81
2021/04/28 01:15:13;;;;;;;1.47;1.13;;;9.00;75.90;;;;;;5035873;28;20455;-81
2021/04/28 01:17:41;;;;;;;1.47;1.17;;;9.00;76.40;;;;;;5037137;28;20475;-81
2021/04/28 01:20:09;;;;;;;1.50;1.10;;;9.00;76.60;;;;;;5029588;28;20987;-82
2021/04/28 01:22:38;;;;;;;1.47;1.10;;;9.00;76.10;;;;;;5025998;28;20479;-81
2021/04/28 01:25:07;;;;;;;1.50;1.20;;;8.90;76.80;;;;;;5030224;28;20506;-81
2021/04/28 01:27:35;;;;;;;2.83;2.17;;;8.90;76.80;;;;;;5028390;28;20483;-81
2021/04/28 01:30:03;;;;;;;1.50;1.27;;;8.80;77.60;;;;;;5027946;28;20575;-83
2021/04/28 01:32:30;;;;;;;1.50;1.10;;;8.70;78.20;;;;;;5020608;28;20501;-81
2021/04/28 01:34:58;;;;;;;1.47;1.10;;;8.70;78.20;;;;;;5030709;28;20551;-82
2021/04/28 01:37:26;;;;;;;1.47;1.17;;;8.60;77.90;;;;;;5029662;28;20471;-81
2021/04/28 01:39:55;;;;;;;1.50;1.13;;;8.60;79.50;;;;;;5033095;28;20535;-81
2021/04/28 01:42:22;;;;;;;1.50;1.20;;;8.50;78.60;;;;;;5031326;28;20532;-81
2021/04/28 01:44:50;;;;;;;1.47;1.20;;;8.40;79.30;;;;;;5036181;28;20492;-81
2021/04/28 01:47:19;;;;;;;1.47;1.20;;;8.40;78.90;;;;;;5026152;28;20550;-81
2021/04/28 01:49:46;;;;;;;1.50;1.17;;;8.30;79.10;;;;;;5034441;28;20486;-81
2021/04/28 01:52:13;;;;;;;1.47;1.13;;;8.30;79.10;;;;;;5013399;28;20871;-80
2021/04/28 01:54:39;;;;;;;1.50;1.10;;;8.20;79.70;;;;;;5028642;28;20556;-82
2021/04/28 01:57:08;;;;;;;1.50;1.20;;;8.20;79.90;;;;;;5028376;28;20498;-81
2021/04/28 01:59:36;;;;;;;1.50;1.40;;;8.20;79.30;;;;;;5035580;28;20571;-81
2021/04/28 02:02:05;;;;;;;2.80;2.60;;;8.10;79.20;;;;;;5022689;28;20487;-83
2021/04/28 02:04:32;;;;;;;1.50;1.10;;;8.10;79.40;;;;;;5030324;28;20955;-82
2021/04/28 02:06:59;;;;;;;1.50;1.10;;;8.00;79.00;;;;;;5028756;28;20593;-81
2021/04/28 02:09:25;;;;;;;1.50;1.30;;;8.00;79.60;;;;;;5033550;28;20686;-80
2021/04/28 02:11:51;;;;;;;1.50;1.10;;;8.00;79.30;;;;;;5029872;28;20554;-81
2021/04/28 02:14:20;;;;;;;1.50;1.20;;;7.90;79.80;;;;;;5030899;28;20470;-82
2021/04/28 02:16:48;;;;;;;1.50;1.20;;;7.90;79.80;;;;;;5019162;28;20593;-81
2021/04/28 02:19:15;;;;;;;1.43;1.10;;;7.90;79.90;;;;;;5030955;28;20774;-80
2021/04/28 02:21:43;;;;;;;1.50;1.20;;;7.80;80.00;;;;;;5025842;28;20788;-82
2021/04/28 02:24:12;;;;;;;1.50;1.20;;;7.80;79.70;;;;;;5030582;28;20494;-81
2021/04/28 02:26:39;;;;;;;1.50;1.20;;;7.80;80.10;;;;;;5023925;28;20509;-80
2021/04/28 02:29:05;;;;;;;1.50;1.20;;;7.70;80.30;;;;;;5039556;28;20475;-80
2021/04/28 02:31:33;;;;;;;1.50;1.20;;;7.70;81.30;;;;;;5020340;28;20893;-80
2021/04/28 02:34:00;;;;;;;1.50;1.20;;;7.70;81.20;;;;;;5034540;28;20463;-80
2021/04/28 02:36:28;;;;;;;1.50;1.20;;;7.60;81.40;;;;;;5020166;28;20487;-81
2021/04/28 02:38:59;;;;;;;1.50;1.20;;;7.60;80.90;;;;;;5038259;28;20489;-81
2021/04/28 02:41:26;;;;;;;1.50;1.20;;;7.60;81.50;;;;;;5020673;28;20475;-80
2021/04/28 02:43:53;;;;;;;1.50;1.20;;;7.60;81.10;;;;;;5042957;28;20463;-81
2021/04/28 02:46:21;;;;;;;1.47;1.20;;;7.60;80.70;;;;;;5011246;28;20554;-80
2021/04/28 02:48:49;;;;;;;1.50;1.20;;;7.60;80.80;;;;;;5038571;28;20827;-81
2021/04/28 02:51:16;;;;;;;1.50;1.27;;;7.50;80.80;;;;;;5019766;28;20945;-82
2021/04/28 02:53:44;;;;;;;1.50;1.20;;;7.50;80.50;;;;;;5040934;28;20476;-82
2021/04/28 02:56:11;;;;;;;1.50;1.30;;;7.50;80.60;;;;;;5017607;28;20481;-81
2021/04/28 02:58:38;;;;;;;1.47;1.20;;;7.50;80.00;;;;;;5041272;28;20455;-81
2021/04/28 03:01:05;;;;;;;1.50;1.20;;;7.50;80.70;;;;;;5021181;28;20513;-82
2021/04/28 03:03:32;;;;;;;1.50;1.20;;;7.50;80.50;;;;;;5036800;28;20464;-82
2021/04/28 03:06:00;;;;;;;1.50;1.30;;;7.50;81.10;;;;;;5019888;28;20465;-82
2021/04/28 03:08:26;;;;;;;1.50;1.30;;;7.40;81.40;;;;;;5032562;28;20492;-82
2021/04/28 03:10:54;;;;;;;1.50;1.20;;;7.40;81.20;;;;;;5015563;28;20480;-81
2021/04/28 03:13:20;;;;;;;1.43;1.20;;;7.40;81.30;;;;;;5034525;28;20835;-80
2021/04/28 03:15:49;;;;;;;1.50;1.10;;;7.40;81.60;;;;;;5022180;28;20451;-80
2021/04/28 03:18:17;;;;;;;1.50;1.20;;;7.30;81.30;;;;;;5039527;28;20484;-80
2021/04/28 03:20:47;;;;;;;1.47;1.20;;;7.30;81.30;;;;;;5027994;28;20479;-81
2021/04/28 03:23:14;;;;;;;1.50;1.20;;;7.30;81.30;;;;;;5032674;28;20510;-81
2021/04/28 03:25:41;;;;;;;1.50;1.20;;;7.30;81.50;;;;;;5031420;28;21089;-81
2021/04/28 03:28:07;;;;;;;1.50;1.30;;;7.30;81.10;;;;;;5023817;28;20760;-82
2021/04/28 03:30:35;;;;;;;1.50;1.20;;;7.30;81.40;;;;;;5023623;28;20496;-81
2021/04/28 03:33:01;;;;;;;1.50;1.20;;;7.30;81.40;;;;;;5035434;28;20489;-82
2021/04/28 03:35:28;;;;;;;1.50;1.20;;;7.30;82.10;;;;;;5029143;28;20498;-82
2021/04/28 03:37:54;;;;;;;1.50;1.30;;;7.30;82.40;;;;;;5029324;28;20494;-82
2021/04/28 03:40:22;;;;;;;1.50;1.30;;;7.30;82.10;;;;;;5032932;28;20479;-81
2021/04/28 03:42:48;;;;;;;1.50;1.40;;;7.20;82.00;;;;;;5027545;28;20499;-81
2021/04/28 03:45:15;;;;;;;1.50;1.30;;;7.30;82.00;;;;;;5034639;28;20526;-82
2021/04/28 03:47:41;;;;;;;1.70;1.60;;;7.30;81.70;;;;;;5038565;28;20475;-81
2021/04/28 03:50:10;;;;;;;1.50;1.20;;;7.20;82.10;;;;;;5028760;28;20480;-81
2021/04/28 03:52:36;;;;;;;1.50;1.10;;;7.20;81.70;;;;;;5033968;28;20487;-81
2021/04/28 03:55:04;;;;;;;1.50;1.30;;;7.10;82.10;;;;;;5033937;28;20463;-83
2021/04/28 03:57:32;;;;;;;1.50;1.20;;;7.10;82.50;;;;;;5036459;28;21107;-82
2021/04/28 03:59:58;;;;;;;1.50;1.20;;;7.00;82.80;;;;;;5035847;28;20487;-82
2021/04/28 04:02:24;;;;;;;1.50;1.20;;;7.00;82.90;;;;;;5028821;28;20521;-80
2021/04/28 04:04:51;;;;;;;1.50;1.20;;;6.90;83.20;;;;;;5034759;28;20509;-81
2021/04/28 04:07:17;;;;;;;1.50;1.30;;;6.80;84.10;;;;;;5036118;28;20526;-83
2021/04/28 04:09:44;;;;;;;1.50;1.40;;;6.80;83.90;;;;;;5036765;28;20484;-79
2021/04/28 04:12:10;;;;;;;1.50;1.23;;;6.70;84.30;;;;;;5023592;28;20513;-81
2021/04/28 04:14:37;;;;;;;1.50;1.40;;;6.70;84.00;;;;;;5037662;28;20462;-82
2021/04/28 04:17:04;;;;;;;1.50;1.20;;;6.70;84.60;;;;;;5030901;28;20492;-80
2021/04/28 04:19:30;;;;;;;1.50;1.37;;;6.60;84.50;;;;;;5033345;28;20503;-81
2021/04/28 04:21:56;;;;;;;1.50;1.30;;;6.60;84.60;;;;;;5027447;28;20499;-81
2021/04/28 04:24:23;;;;;;;1.50;1.30;;;6.50;83.60;;;;;;5041700;28;20527;-80
2021/04/28 04:26:50;;;;;;;1.50;1.20;;;6.50;85.20;;;;;;5032245;28;20479;-82
2021/04/28 04:29:16;;;;;;;1.50;1.40;;;6.50;85.90;;;;;;5045210;28;20493;-80
2021/04/28 04:31:43;;;;;;;1.50;1.20;;;6.50;86.30;;;;;;5039571;28;20585;-81
2021/04/28 04:34:10;;;;;;;1.50;1.40;;;6.50;85.60;;;;;;5049443;28;20860;-81
2021/04/28 04:36:36;;;;;;;1.50;1.30;;;6.50;85.90;;;;;;5037328;28;20475;-81
2021/04/28 04:39:04;;;;;;;1.50;1.10;;;6.50;85.20;;;;;;5045931;28;20748;-81
2021/04/28 04:41:30;;;;;;;1.50;1.20;;;6.50;85.50;;;;;;5031108;28;20475;-82
2021/04/28 04:43:56;;;;;;;1.50;1.20;;;6.60;85.10;;;;;;5052389;28;20467;-82
2021/04/28 04:46:23;;;;;;;1.50;1.20;;;6.60;84.70;;;;;;5036069;28;20558;-80
2021/04/28 04:48:50;;;;;;;1.50;1.33;;;6.60;84.60;;;;;;5052810;28;20758;-80
2021/04/28 04:51:17;;;;;;;1.50;1.20;;;6.70;84.90;;;;;;5036956;28;20491;-81
2021/04/28 04:53:43;;;;;;;1.50;1.30;;;6.70;84.50;;;;;;5051380;28;20743;-83
2021/04/28 04:56:10;;;;;;;1.50;1.30;;;6.70;84.70;;;;;;5025418;28;20567;-81
2021/04/28 04:58:36;;;;;;;1.50;1.20;;;6.70;85.00;;;;;;5046388;28;20567;-81
2021/04/28 05:01:03;;;;;;;1.50;1.30;;;6.70;84.40;;;;;;5028690;28;20503;-82
2021/04/28 05:03:29;;;;;;;1.50;1.20;;;6.80;85.00;;;;;;5052021;28;20451;-81
2021/04/28 05:05:57;;;;;;;1.50;1.30;;;6.80;84.70;;;;;;5038630;28;20463;-82
2021/04/28 05:08:24;;;;;;;1.50;1.20;;;6.80;85.00;;;;;;5051921;28;20538;-82
2021/04/28 05:10:50;;;;;;;1.50;1.20;;;6.90;84.80;;;;;;5024594;28;20484;-81
2021/04/28 05:13:17;;;;;;;1.50;1.20;;;6.90;85.30;;;;;;5053813;28;20515;-82
2021/04/28 05:15:43;;;;;;;1.50;1.30;;;7.00;84.30;;;;;;5041921;28;20475;-82
2021/04/28 05:18:10;;;;;;;1.50;1.20;;;7.00;85.30;;;;;;5021272;28;21131;-81
2021/04/28 05:20:37;;;;;;;1.50;1.30;;;7.10;85.70;;;;;;5025359;28;20549;-81
2021/04/28 05:23:04;;;;;;;1.50;1.30;;;7.20;85.20;;;;;;5029814;28;20998;-80
2021/04/28 05:25:31;;;;;;;1.50;1.20;;;7.30;84.40;;;;;;5036839;28;20990;-81
2021/04/28 05:27:57;;;;;;;1.50;1.30;;;7.50;84.40;;;;;;5026462;28;20981;-80
2021/04/28 05:30:23;;;;;;;1.50;1.20;;;7.60;84.70;;;;;;5021842;28;20483;-80
2021/04/28 05:32:50;;;;;;;1.50;1.20;;;7.80;83.90;;;;;;5033201;28;20485;-80
2021/04/28 05:35:17;;;;;;;1.50;1.20;;;8.00;83.40;;;;;;5021687;28;20456;-80
2021/04/28 05:37:43;;;;;;;1.50;1.20;;;8.30;83.70;;;;;;5033639;28;20541;-80
2021/04/28 05:40:12;;;;;;;1.50;1.20;;;8.60;83.20;;;;;;5028725;28;20935;-80
2021/04/28 05:42:39;;;;;;;1.50;1.20;;;8.90;82.70;;;;;;5037574;28;20569;-80
2021/04/28 05:45:08;;;;;;;1.50;1.10;;;9.30;81.50;;;;;;5031392;28;20464;-80
2021/04/28 05:47:34;;;;;;;1.50;1.10;;;9.50;80.60;;;;;;5031261;28;20498;-80
2021/04/28 05:50:01;;;;;;;1.50;1.10;;;9.80;79.60;;;;;;5028855;28;20483;-81
2021/04/28 05:52:28;;;;;;;1.47;1.10;;;10.10;79.40;;;;;;5033039;28;20808;-80
2021/04/28 05:54:54;;;;;;;1.40;1.00;;;10.40;78.70;;;;;;5031494;28;20503;-79
2021/04/28 05:57:21;;;;;;;1.50;1.30;;;10.70;77.40;;;;;;5029110;28;20772;-79
2021/04/28 05:59:48;;;;;;;1.50;1.10;;;10.90;76.60;;;;;;5028108;28;20539;-80
2021/04/28 06:02:14;;;;;;;1.50;1.10;;;11.20;75.10;;;;;;5021412;28;20513;-79
2021/04/28 06:04:40;;;;;;;1.50;1.10;;;11.40;73.80;;;;;;5035214;28;20546;-81
2021/04/28 06:07:07;;;;;;;1.50;1.10;;;11.50;73.90;;;;;;5030208;28;20506;-80
2021/04/28 06:09:33;;;;;;;1.50;1.10;;;11.70;74.30;;;;;;5028285;28;20962;-79
2021/04/28 06:12:00;;;;;;;3.33;3.03;;;12.00;73.00;;;;;;5026445;28;20513;-83
2021/04/28 06:14:27;;;;;;;1.47;1.00;;;12.00;70.50;;;;;;5039743;28;20967;-80
2021/04/28 06:16:54;;;;;;;1.47;1.00;;;11.90;70.20;;;;;;5020709;28;20486;-78
2021/04/28 06:19:20;;;;;;;1.47;1.10;;;11.80;69.60;;;;;;5037279;28;20487;-79
2021/04/28 06:21:47;;;;;;;1.47;1.00;;;11.80;69.50;;;;;;5016156;28;20483;-79
2021/04/28 06:24:13;;;;;;;1.47;1.00;;;11.90;69.10;;;;;;5038378;28;20459;-80
2021/04/28 06:26:41;;;;;;;1.50;1.10;;;12.00;69.40;;;;;;5024191;28;20511;-80
2021/04/28 06:29:07;;;;;;;1.50;1.10;;;12.10;68.90;;;;;;5033634;28;20535;-80
2021/04/28 06:31:34;;;;;;;1.50;1.00;;;12.20;68.60;;;;;;5030675;28;20480;-80
2021/04/28 06:34:01;;;;;;;1.50;1.00;;;12.30;67.90;;;;;;5033023;28;20469;-80
2021/04/28 06:36:27;;;;;;;2.13;1.33;;;12.40;68.90;;;;;;5018813;28;21192;-79
2021/04/28 06:38:54;;;;;;;1.47;1.00;;;12.50;67.60;;;;;;5032996;28;20455;-80
2021/04/28 06:41:20;;;;;;;1.50;1.00;;;12.70;68.20;;;;;;5014773;28;20471;-81
2021/04/28 06:43:46;;;;;;;2.27;2.07;;;13.00;67.50;;;;;;5042022;28;20474;-81
2021/04/28 06:46:13;;;;;;;1.47;1.00;;;13.20;66.80;;;;;;5019838;28;21234;-79
2021/04/28 06:48:40;;;;;;;1.43;1.00;;;13.30;66.80;;;;;;5029349;28;20498;-79
2021/04/28 06:51:07;;;;;;;1.50;1.00;;;13.50;66.40;;;;;;5020514;28;20471;-79
2021/04/28 06:53:33;;;;;;;1.83;1.40;;;13.70;66.80;;;;;;5031801;28;20503;-79
2021/04/28 06:55:59;;;;;;;1.50;1.13;;;13.80;66.80;;;;;;5013444;28;20467;-81
2021/04/28 06:58:27;;;;;;;1.40;1.00;;;14.10;65.90;;;;;;5029519;28;20558;-80
2021/04/28 07:00:54;;;;;;;1.47;0.90;;;14.20;65.60;;;;;;5014954;28;20897;-81
2021/04/28 07:03:20;;;;;;;1.47;1.00;;;14.30;65.40;;;;;;5032308;28;20564;-79
2021/04/28 07:05:47;;;;;;;1.50;0.90;;;14.40;65.50;;;;;;5022536;28;20463;-79
2021/04/28 07:08:13;;;;;;;1.43;0.97;;;14.40;65.00;;;;;;5039457;28;20501;-82
2021/04/28 07:10:40;;;;;;;8.40;7.90;;;14.50;65.10;;;;;;5026253;28;20590;-81
2021/04/28 07:13:06;;;;;;;1.50;1.10;;;14.50;65.30;;;;;;5030514;28;20483;-81
2021/04/28 07:15:33;;;;;;;1.47;1.00;;;14.60;65.50;;;;;;5020019;28;20546;-82
2021/04/28 07:18:00;;;;;;;1.47;1.00;;;14.70;65.50;;;;;;5032108;28;20501;-81
2021/04/28 07:20:26;;;;;;;1.47;1.00;;;14.70;65.50;;;;;;5031285;28;20577;-81
2021/04/28 07:22:54;;;;;;;1.47;0.97;;;14.90;65.30;;;;;;5027149;28;20999;-80
2021/04/28 07:25:20;;;;;;;1.50;1.00;;;15.10;65.10;;;;;;5025123;28;20468;-81
2021/04/28 07:27:47;;;;;;;1.50;1.10;;;15.30;64.30;;;;;;5001694;28;20495;-80
2021/04/28 07:30:15;;;;;;;1.47;0.90;;;15.30;63.60;;;;;;5014129;28;20497;-78
2021/04/28 07:32:44;;;;;;;1.47;1.00;;;15.40;63.30;;;;;;5022472;28;20494;-81
2021/04/28 07:35:12;;;;;;;1.50;1.00;;;15.50;63.50;;;;;;5034773;28;20464;-82
2021/04/28 07:37:39;;;;;;;1.47;1.00;;;15.50;63.50;;;;;;5029097;28;21050;-81
2021/04/28 07:40:08;;;;;;;1.47;0.90;;;15.60;63.00;;;;;;5022974;28;20476;-81
2021/04/28 07:42:34;;;;;;;1.47;1.00;;;15.60;62.80;;;;;;5029205;28;20510;-81
2021/04/28 07:45:00;;;;;;;1.50;1.10;;;15.60;63.10;;;;;;5034115;28;20547;-80
2021/04/28 07:47:27;;;;;;;1.47;0.97;;;15.90;62.70;;;;;;5026953;28;20478;-81
2021/04/28 07:49:53;;;;;;;1.50;1.00;;;16.10;61.80;;;;;;5024034;28;20492;-78
2021/04/28 07:52:20;;;;;;;1.50;1.00;;;16.20;61.50;;;;;;5026413;28;20519;-80
2021/04/28 07:54:46;;;;;;;1.43;0.90;;;16.40;61.80;;;;;;5039228;28;20553;-82
2021/04/28 07:57:13;;;;;;;1.80;1.37;;;16.50;60.90;;;;;;5035960;28;20506;-81
2021/04/28 07:59:40;;;;;;;1.50;0.90;;;16.70;60.90;;;;;;5027528;28;20492;-82
2021/04/28 08:02:06;;;;;;;1.50;1.00;;;16.90;60.60;;;;;;5022046;28;20764;-80
2021/04/28 08:04:33;;;;;;;1.43;0.90;;;17.00;60.50;;;;;;5031403;28;20468;-80
2021/04/28 08:07:00;;;;;;;1.50;0.90;;;17.20;60.30;;;;;;5021854;28;20483;-82
2021/04/28 08:09:26;;;;;;;1.50;1.00;;;17.50;60.80;;;;;;5014718;28;20594;-83
2021/04/28 08:11:53;;;;;;;1.50;0.90;;;17.60;59.50;;;;;;5009591;28;20999;-80
2021/04/28 08:14:20;;;;;;;1.50;1.00;;;17.60;59.60;;;;;;5033599;28;20463;-82
2021/04/28 08:16:46;;;;;;;1.50;0.90;;;17.70;59.30;;;;;;5024372;28;20543;-83
2021/04/28 08:19:13;;;;;;;1.50;1.00;;;17.70;59.70;;;;;;5037085;28;20492;-80
2021/04/28 08:21:39;;;;;;;1.43;0.90;;;17.60;59.80;;;;;;5014355;28;20478;-80
2021/04/28 08:24:06;;;;;;;1.40;0.90;;;17.70;60.30;;;;;;5036685;28;20980;-83
2021/04/28 08:26:32;;;;;;;2.50;2.30;;;17.80;59.60;;;;;;5017645;28;20487;-81
2021/04/28 08:28:58;;;;;;;1.47;0.90;;;18.00;59.80;;;;;;5029006;28;20491;-81
2021/04/28 08:31:25;;;;;;;1.50;0.90;;;18.20;58.90;;;;;;5010833;28;20486;-81
2021/04/28 08:33:52;;;;;;;1.50;0.90;;;18.30;58.60;;;;;;5038230;28;20910;-81
2021/04/28 08:36:19;;;;;;;1.50;0.90;;;18.30;58.50;;;;;;5021565;28;20524;-79
2021/04/28 08:38:45;;;;;;;1.50;1.10;;;18.30;58.70;;;;;;5035810;28;20532;-79
2021/04/28 08:41:12;;;;;;;1.50;1.00;;;18.50;58.90;;;;;;5024014;28;20842;-80
2021/04/28 08:43:39;;;;;;;1.50;0.90;;;18.60;58.30;;;;;;5037569;28;20497;-80
2021/04/28 08:46:08;;;;;;;1.50;0.97;;;18.70;58.20;;;;;;5021965;28;20488;-80
2021/04/28 08:48:35;;;;;;;1.47;0.90;;;18.90;58.00;;;;;;5031821;28;20502;-79
2021/04/28 08:51:03;;;;;;;1.47;0.90;;;19.20;57.90;;;;;;5019517;28;20491;-81
2021/04/28 08:53:31;;;;;;;1.50;0.90;;;19.20;58.20;;;;;;5039017;28;20503;-81
2021/04/28 08:55:58;;;;;;;1.50;0.90;;;19.20;57.50;;;;;;5021041;28;21008;-80
2021/04/28 08:58:25;;;;;;;1.47;0.90;;;19.30;57.10;;;;;;5041780;28;20517;-81
2021/04/28 09:00:52;;;;;;;1.47;0.90;;;19.50;57.60;;;;;;5018417;28;20553;-80
2021/04/28 09:03:19;;;;;;;1.47;0.90;;;19.60;56.80;;;;;;5044605;28;20578;-81
2021/04/28 09:05:47;;;;;;;1.50;0.90;;;19.80;57.00;;;;;;5030507;28;20941;-78
2021/04/28 09:08:14;;;;;;;1.50;0.90;;;20.00;55.90;;;;;;5045064;28;20612;-82
2021/04/28 09:10:42;;;;;;;1.47;0.90;;;20.10;56.30;;;;;;5025221;28;20490;-80
2021/04/28 09:13:15;;;;;;;1.50;0.90;;;20.20;56.70;;;;;;5032232;28;20513;-80
2021/04/28 09:15:43;;;;;;;1.50;0.90;;;20.40;55.30;;;;;;5033102;28;20495;-79
2021/04/28 09:18:12;;;;;;;1.50;0.90;;;20.50;56.00;;;;;;5034322;28;20487;-79
2021/04/28 09:20:44;;;;;;;1.43;0.80;;;20.70;54.80;;;;;;5023344;28;20844;-80
2021/04/28 09:23:16;;;;;;;1.47;0.90;;;20.80;53.70;;;;;;5035653;28;20479;-79
2021/04/28 09:25:44;;;;;;;1.50;1.10;;;20.90;53.70;;;;;;5031271;28;20467;-79
2021/04/28 09:28:29;;;;;;;1.47;1.03;;;21.10;54.00;;;;;;5033924;28;21057;-79
2021/04/28 09:31:14;;;;;;;1.50;0.90;;;21.20;53.50;;;;;;5015019;28;20503;-81
2021/04/28 09:33:53;;;;;;;1.50;0.90;;;21.40;53.40;;;;;;5039291;28;20921;-80
2021/04/28 09:36:28;;;;;;;1.50;0.90;;;21.50;53.50;;;;;;5016351;28;20474;-80
2021/04/28 09:38:57;;;;;;;1.50;0.90;;;21.70;52.70;;;;;;5035394;28;20459;-80
2021/04/28 09:41:35;;;;;;;1.40;0.80;;;21.60;52.70;;;;;;5016253;28;21190;-80
2021/04/28 09:44:02;;;;;;;1.40;0.90;;;21.70;52.20;;;;;;5025981;28;20546;-81
2021/04/28 09:46:28;;;;;;;1.50;0.83;;;21.80;52.90;;;;;;5007337;28;20614;-80
2021/04/28 09:49:06;;;;;;;1.50;0.90;;;21.80;52.20;;;;;;5014521;28;20468;-81
2021/04/28 09:51:35;;;;;;;1.80;1.40;;;22.00;52.80;;;;;;5003821;28;20482;-82
2021/04/28 09:54:12;;;;;;;1.43;0.90;;;22.10;52.10;;;;;;5012045;28;20913;-82
2021/04/28 09:56:40;;;;;;;1.43;0.90;;;22.10;52.30;;;;;;5003228;28;20487;-79
2021/04/28 09:59:07;;;;;;;1.47;0.90;;;22.30;51.90;;;;;;5039008;28;20486;-80
2021/04/28 10:01:34;;;;;;;1.47;0.90;;;22.40;51.80;;;;;;5022810;28;20482;-83
2021/04/28 10:04:05;;;;;;;1.43;0.90;;;22.50;51.50;;;;;;5031419;28;20566;-81
2021/04/28 10:06:45;;;;;;;1.40;0.80;;;22.50;50.30;;;;;;5017795;28;20501;-84
2021/04/28 10:09:30;;;;;;;1.47;0.90;;;22.50;51.20;;;;;;5029125;28;20459;-83
2021/04/28 10:11:58;;;;;;;1.40;0.90;;;22.50;49.00;;;;;;5019240;28;20537;-83
2021/04/28 10:14:26;;;;;;;1.97;1.60;;;22.50;49.80;;;;;;5036505;28;20481;-84
2021/04/28 10:19:40;;;;;;;1.50;0.90;;;22.80;50.20;;;;;;5022690;28;20478;-84
2021/04/28 10:22:09;;;;;;;1.47;0.90;;;22.80;48.50;;;;;;5020144;28;21044;-83
2021/04/28 10:24:37;;;;;;;1.40;0.83;;;22.80;49.70;;;;;;5030071;28;20511;-83
2021/04/28 10:27:04;;;;;;;1.50;0.90;;;22.80;50.00;;;;;;5027630;28;20514;-83
2021/04/28 10:29:33;;;;;;;1.47;0.90;;;23.00;49.50;;;;;;5026293;28;21152;-85
2021/04/28 10:31:59;;;;;;;1.50;1.10;;;23.20;48.30;;;;;;5015389;28;20488;-83
2021/04/28 10:34:30;;;;;;;1.47;0.80;;;23.30;48.10;;;;;;5037867;28;20559;-84
2021/04/28 10:36:58;;;;;;;1.47;0.83;;;23.20;48.60;;;;;;5018244;28;20573;-82
2021/04/28 10:39:28;;;;;;;1.43;0.90;;;23.30;47.40;;;;;;5012194;28;20560;-83
2021/04/28 10:41:57;;;;;;;1.43;0.80;;;23.30;47.90;;;;;;5011102;28;20498;-85
2021/04/28 10:44:44;;;;;;;2.83;1.47;;;23.40;47.60;;;;;;5015244;28;20464;-83
2021/04/28 10:47:29;;;;;;;1.47;0.80;;;23.30;47.20;;;;;;5007275;28;20550;-83
2021/04/28 10:50:12;;;;;;;1.40;0.80;;;23.50;48.40;;;;;;5002952;28;20985;-83
2021/04/28 10:52:44;;;;;;;1.47;0.90;;;23.70;47.80;;;;;;5011433;28;21133;-84
2021/04/28 10:55:43;;;;;;;1.43;0.90;;;23.70;46.70;;;;;;5004356;28;20571;-83
2021/04/28 10:58:42;;;;;;;1.43;0.90;;;23.60;46.00;;;;;;5034408;28;20482;-85
2021/04/28 11:01:35;;;;;;;3.70;2.20;;;23.40;46.40;;;;;;5020679;28;20525;-84
2021/04/28 11:04:11;;;;;;;1.40;0.80;;;23.40;45.30;;;;;;5027901;28;20466;-84
2021/04/28 11:06:41;;;;;;;1.40;0.90;;;23.60;46.00;;;;;;5019678;28;20521;-83
2021/04/28 11:09:14;;;;;;;1.40;0.90;;;23.70;45.50;;;;;;5024657;28;20561;-85
2021/04/28 11:11:42;;;;;;;1.43;0.80;;;23.70;45.60;;;;;;5025120;28;20489;-82
2021/04/28 11:14:35;;;;;;;1.43;0.80;;;23.80;45.40;;;;;;5035401;28;20557;-84
2021/04/28 11:17:18;;;;;;;1.50;1.13;;;23.90;45.90;;;;;;5022067;28;20490;-81
2021/04/28 11:19:45;;;;;;;1.47;0.80;;;24.00;46.00;;;;;;5031782;28;21063;-82
2021/04/28 11:22:19;;;;;;;1.43;0.80;;;24.20;45.80;;;;;;5041502;28;20580;-81
2021/04/28 11:25:08;;;;;;;1.50;0.80;;;24.30;44.30;;;;;;5036865;28;20451;-81
2021/04/28 11:27:51;;;;;;;1.43;0.90;;;24.30;44.40;;;;;;5028082;28;21007;-83
2021/04/28 11:30:49;;;;;;;1.47;0.90;;;24.10;45.30;;;;;;5036131;28;20490;-83
2021/04/28 11:33:43;;;;;;;1.43;0.80;;;24.20;45.50;;;;;;5019027;28;20470;-83
2021/04/28 11:36:29;;;;;;;1.43;0.80;;;24.30;44.50;;;;;;5024845;28;20474;-81
2021/04/28 11:38:55;;;;;;;1.50;0.80;;;24.30;44.00;;;;;;5017206;28;20447;-80
2021/04/28 11:41:26;;;;;;;1.47;0.80;;;24.30;45.10;;;;;;5024487;28;21007;-83
2021/04/28 11:43:54;;;;;;;1.50;0.90;;;24.40;44.40;;;;;;5035600;28;20459;-83
2021/04/28 11:46:23;;;;;;;1.43;0.90;;;24.50;44.30;;;;;;5019669;28;20486;-83
2021/04/28 11:48:55;;;;;;;1.47;0.80;;;24.20;45.20;;;;;;5017550;28;20578;-83
2021/04/28 11:51:35;;;;;;;1.60;1.20;;;24.10;45.10;;;;;;5025453;28;20480;-83
2021/04/28 11:54:04;;;;;;;1.40;0.90;;;24.00;44.50;;;;;;5029841;28;20941;-79
2021/04/28 11:56:38;;;;;;;1.43;0.80;;;24.20;44.20;;;;;;5014510;28;20489;-81
2021/04/28 11:59:05;;;;;;;1.47;0.80;;;24.40;45.90;;;;;;5039998;28;20466;-82
2021/04/28 12:01:35;;;;;;;1.47;0.90;;;24.50;46.60;;;;;;5020746;28;20504;-84
2021/04/28 12:04:05;;;;;;;1.40;0.80;;;24.80;44.50;;;;;;5041859;28;20490;-83
2021/04/28 12:06:35;;;;;;;1.43;0.90;;;24.50;41.70;;;;;;5029596;28;20546;-82
2021/04/28 12:09:23;;;;;;;1.43;0.90;;;24.70;45.50;;;;;;5037907;28;20633;-81
2021/04/28 12:12:10;;;;;;;1.47;0.90;;;24.90;42.60;;;;;;5022166;28;20482;-84
2021/04/28 12:14:39;;;;;;;1.47;0.90;;;24.90;42.00;;;;;;5029773;28;20466;-83
2021/04/28 12:17:06;;;;;;;1.43;0.80;;;25.00;42.50;;;;;;5021662;28;20517;-81
2021/04/28 12:19:33;;;;;;;1.47;0.80;;;24.90;41.10;;;;;;5031271;28;20478;-84
2021/04/28 12:22:02;;;;;;;1.50;0.80;;;24.70;43.60;;;;;;5022688;28;20588;-82
2021/04/28 12:24:31;;;;;;;1.43;0.80;;;24.70;43.70;;;;;;5032201;28;20483;-83
2021/04/28 12:27:21;;;;;;;1.50;0.90;;;24.90;43.80;;;;;;5027783;28;20500;-84
2021/04/28 12:29:50;;;;;;;1.47;0.90;;;24.90;42.70;;;;;;5038293;28;21215;-84
2021/04/28 12:32:19;;;;;;;1.50;0.80;;;24.90;43.70;;;;;;5026313;28;20497;-85
2021/04/28 12:34:47;;;;;;;1.47;0.80;;;24.90;44.20;;;;;;5032961;28;20459;-82
2021/04/28 12:37:19;;;;;;;1.50;1.00;;;24.80;43.50;;;;;;5027484;28;20480;-83
2021/04/28 12:39:55;;;;;;;1.47;0.80;;;25.10;45.60;;;;;;5029899;28;20498;-82
2021/04/28 12:42:24;;;;;;;2.20;1.20;;;25.30;44.10;;;;;;5021400;28;20532;-82
2021/04/28 12:44:51;;;;;;;1.43;0.80;;;25.10;43.40;;;;;;5029942;28;21036;-84
2021/04/28 12:47:22;;;;;;;1.40;0.90;;;25.00;43.50;;;;;;5029111;28;20577;-82
2021/04/28 12:49:54;;;;;;;1.47;0.90;;;25.20;45.20;;;;;;5032870;28;20520;-84
2021/04/28 12:52:21;;;;;;;1.50;0.90;;;25.60;46.50;;;;;;5026803;28;20513;-82
2021/04/28 12:54:47;;;;;;;1.50;1.10;;;25.80;43.10;;;;;;5034567;28;20501;-79
2021/04/28 12:57:22;;;;;;;1.43;0.80;;;25.90;42.20;;;;;;5027280;28;20525;-80
2021/04/28 13:00:06;;;;;;;1.40;0.80;;;26.00;42.50;;;;;;5025332;28;20493;-80
2021/04/28 13:02:33;;;;;;;1.47;0.80;;;26.30;41.90;;;;;;5021252;28;21097;-79